Aviation Digital Data Service (ADDS)

Output produced by METARs form (1444 UTC 20 September 2017)
found at http://www.aviationweather.gov/adds/metars/
 
TAF SGAS 201024Z 2012/2112 07008KT 9000 NSC TX37/2019Z TN22/2110Z 
     BECMG 2014/2017 05010KT CAVOK 
     BECMG 2022/2023 8000 NSC
       
TAF SGES 201024Z 2012/2112 12006KT CAVOK TX37/2019Z TN20/2110Z 
     BECMG 2014/2017 05008KT CAVOK
       
TAF SGCO 201024Z 2012/2112 12004KT CAVOK TX38/2019Z TN25/2110Z 
     BECMG 2014/2017 07010KT CAVOK